sensor_id;sensor_type;location;lat;lon;timestamp;pressure;altitude;pressure_sealevel;temperature;humidity
56292;BME280;54008;53.606;9.462;2022-12-18T02:28:00;104681.47;;;-7.20;100.00
56292;BME280;54008;53.606;9.462;2022-12-18T02:30:30;104683.34;;;-7.26;100.00
56292;BME280;54008;53.606;9.462;2022-12-18T02:32:57;104685.84;;;-7.17;100.00
56292;BME280;54008;53.606;9.462;2022-12-18T02:35:26;104679.59;;;-7.13;100.00
56292;BME280;54008;53.606;9.462;2022-12-18T02:37:57;104684.75;;;-7.04;100.00
56292;BME280;54008;53.606;9.462;2022-12-18T02:40:24;104676.78;;;-7.05;100.00
56292;BME280;54008;53.606;9.462;2022-12-18T02:42:51;104675.84;;;-7.04;100.00
56292;BME280;54008;53.606;9.462;2022-12-18T02:45:16;104676.66;;;-6.99;100.00
56292;BME280;54008;53.606;9.462;2022-12-18T02:47:45;104673.06;;;-6.98;100.00
56292;BME280;54008;53.606;9.462;2022-12-18T02:50:28;104673.13;;;-7.01;100.00
56292;BME280;54008;53.606;9.462;2022-12-18T02:53:11;104672.31;;;-7.07;100.00
56292;BME280;54008;53.606;9.462;2022-12-18T03:03:54;104653.78;;;-7.13;100.00
56292;BME280;54008;53.606;9.462;2022-12-18T03:06:24;104656.31;;;-7.07;100.00
56292;BME280;54008;53.606;9.462;2022-12-18T03:08:55;104652.81;;;-7.10;100.00
56292;BME280;54008;53.606;9.462;2022-12-18T03:11:25;104636.91;;;-7.15;100.00
56292;BME280;54008;53.606;9.462;2022-12-18T03:14:13;104646.59;;;-7.09;100.00
56292;BME280;54008;53.606;9.462;2022-12-18T03:16:41;104633.22;;;-7.08;100.00
56292;BME280;54008;53.606;9.462;2022-12-18T03:19:11;104626.16;;;-7.12;100.00
56292;BME280;54008;53.606;9.462;2022-12-18T03:21:43;104628.84;;;-7.12;100.00
56292;BME280;54008;53.606;9.462;2022-12-18T03:24:11;104627.22;;;-7.20;100.00
56292;BME280;54008;53.606;9.462;2022-12-18T03:26:41;104633.41;;;-7.17;100.00
56292;BME280;54008;53.606;9.462;2022-12-18T03:29:36;104635.16;;;-7.17;100.00
56292;BME280;54008;53.606;9.462;2022-12-18T03:32:06;104633.50;;;-7.23;100.00
56292;BME280;54008;53.606;9.462;2022-12-18T03:34:35;104638.09;;;-7.31;100.00
56292;BME280;54008;53.606;9.462;2022-12-18T03:37:02;104632.75;;;-7.31;100.00
56292;BME280;54008;53.606;9.462;2022-12-18T03:39:28;104631.19;;;-7.43;100.00
56292;BME280;54008;53.606;9.462;2022-12-18T03:41:59;104631.19;;;-7.43;100.00
56292;BME280;54008;53.606;9.462;2022-12-18T03:44:36;104635.56;;;-7.40;100.00
56292;BME280;54008;53.606;9.462;2022-12-18T03:49:39;104635.47;;;-7.34;100.00
56292;BME280;54008;53.606;9.462;2022-12-18T03:52:53;104632.03;;;-7.39;100.00
56292;BME280;54008;53.606;9.462;2022-12-18T03:55:21;104629.34;;;-7.39;100.00
56292;BME280;54008;53.606;9.462;2022-12-18T03:57:49;104608.84;;;-7.37;100.00
56292;BME280;54008;53.606;9.462;2022-12-18T04:00:18;104607.91;;;-7.35;100.00
56292;BME280;54008;53.606;9.462;2022-12-18T04:02:51;104605.06;;;-7.24;100.00
56292;BME280;54008;53.606;9.462;2022-12-18T04:05:18;104604.16;;;-7.24;100.00
56292;BME280;54008;53.606;9.462;2022-12-18T04:07:47;104611.28;;;-7.25;100.00
56292;BME280;54008;53.606;9.462;2022-12-18T04:10:14;104603.34;;;-7.28;100.00
56292;BME280;54008;53.606;9.462;2022-12-18T04:12:40;104593.72;;;-7.35;100.00
56292;BME280;54008;53.606;9.462;2022-12-18T04:15:07;104590.25;;;-7.42;100.00
56292;BME280;54008;53.606;9.462;2022-12-18T04:17:32;104583.03;;;-7.35;100.00
56292;BME280;54008;53.606;9.462;2022-12-18T04:19:57;104582.91;;;-7.29;100.00
56292;BME280;54008;53.606;9.462;2022-12-18T04:22:22;104577.72;;;-7.37;100.00
56292;BME280;54008;53.606;9.462;2022-12-18T04:24:48;104582.06;;;-7.31;100.00
56292;BME280;54008;53.606;9.462;2022-12-18T04:27:13;104570.38;;;-7.24;100.00
56292;BME280;54008;53.606;9.462;2022-12-18T04:29:39;104573.16;;;-7.30;100.00
56292;BME280;54008;53.606;9.462;2022-12-18T04:32:04;104572.41;;;-7.38;100.00
56292;BME280;54008;53.606;9.462;2022-12-18T04:34:29;104564.56;;;-7.47;100.00
56292;BME280;54008;53.606;9.462;2022-12-18T04:36:55;104550.34;;;-7.46;100.00
56292;BME280;54008;53.606;9.462;2022-12-18T04:39:21;104543.38;;;-7.53;100.00
56292;BME280;54008;53.606;9.462;2022-12-18T04:41:46;104533.56;;;-7.53;100.00
56292;BME280;54008;53.606;9.462;2022-12-18T04:44:11;104528.19;;;-7.51;100.00
56292;BME280;54008;53.606;9.462;2022-12-18T04:46:37;104528.94;;;-7.43;100.00
56292;BME280;54008;53.606;9.462;2022-12-18T04:49:02;104519.31;;;-7.50;100.00
56292;BME280;54008;53.606;9.462;2022-12-18T04:51:27;104513.06;;;-7.49;100.00
56292;BME280;54008;53.606;9.462;2022-12-18T04:53:53;104517.66;;;-7.58;100.00
56292;BME280;54008;53.606;9.462;2022-12-18T04:56:20;104508.91;;;-7.66;100.00
56292;BME280;54008;53.606;9.462;2022-12-18T04:58:46;104513.44;;;-7.71;100.00
56292;BME280;54008;53.606;9.462;2022-12-18T05:01:13;104522.13;;;-7.60;100.00
56292;BME280;54008;53.606;9.462;2022-12-18T05:03:39;104530.31;;;-7.70;100.00
56292;BME280;54008;53.606;9.462;2022-12-18T05:06:05;104526.00;;;-7.76;100.00
56292;BME280;54008;53.606;9.462;2022-12-18T05:08:31;104529.53;;;-7.77;100.00
56292;BME280;54008;53.606;9.462;2022-12-18T05:13:26;104521.53;;;-7.77;100.00
56292;BME280;54008;53.606;9.462;2022-12-18T05:15:52;104519.97;;;-7.87;100.00
56292;BME280;54008;53.606;9.462;2022-12-18T05:18:17;104521.06;;;-8.00;100.00
56292;BME280;54008;53.606;9.462;2022-12-18T05:20:43;104526.44;;;-8.03;100.00
56292;BME280;54008;53.606;9.462;2022-12-18T05:23:08;104524.75;;;-8.08;100.00
56292;BME280;54008;53.606;9.462;2022-12-18T05:25:33;104515.25;;;-8.24;100.00
56292;BME280;54008;53.606;9.462;2022-12-18T05:27:59;104506.50;;;-8.32;100.00
56292;BME280;54008;53.606;9.462;2022-12-18T05:30:24;104516.22;;;-8.28;100.00
56292;BME280;54008;53.606;9.462;2022-12-18T05:32:49;104517.91;;;-8.24;100.00
56292;BME280;54008;53.606;9.462;2022-12-18T05:35:15;104518.84;;;-8.26;100.00
56292;BME280;54008;53.606;9.462;2022-12-18T05:37:40;104518.72;;;-8.19;100.00
56292;BME280;54008;53.606;9.462;2022-12-18T05:40:06;104527.66;;;-8.21;100.00
56292;BME280;54008;53.606;9.462;2022-12-18T05:42:31;104523.28;;;-8.27;100.00
56292;BME280;54008;53.606;9.462;2022-12-18T05:44:57;104525.03;;;-8.26;100.00
56292;BME280;54008;53.606;9.462;2022-12-18T05:47:22;104521.63;;;-8.34;100.00
56292;BME280;54008;53.606;9.462;2022-12-18T05:49:47;104517.28;;;-8.38;100.00
56292;BME280;54008;53.606;9.462;2022-12-18T05:52:12;104510.09;;;-8.35;100.00
56292;BME280;54008;53.606;9.462;2022-12-18T05:54:38;104501.19;;;-8.34;100.00
56292;BME280;54008;53.606;9.462;2022-12-18T05:57:04;104510.03;;;-8.32;100.00
56292;BME280;54008;53.606;9.462;2022-12-18T05:59:29;104507.38;;;-8.32;100.00
56292;BME280;54008;53.606;9.462;2022-12-18T06:01:54;104496.88;;;-8.39;100.00
56292;BME280;54008;53.606;9.462;2022-12-18T06:04:19;104492.41;;;-8.37;100.00
56292;BME280;54008;53.606;9.462;2022-12-18T06:06:45;104489.78;;;-8.40;100.00
56292;BME280;54008;53.606;9.462;2022-12-18T06:09:10;104488.81;;;-8.36;100.00
56292;BME280;54008;53.606;9.462;2022-12-18T06:11:36;104489.69;;;-8.36;100.00
56292;BME280;54008;53.606;9.462;2022-12-18T06:14:03;104489.66;;;-8.34;100.00
56292;BME280;54008;53.606;9.462;2022-12-18T06:16:29;104493.22;;;-8.35;100.00
56292;BME280;54008;53.606;9.462;2022-12-18T06:18:58;104486.34;;;-8.47;100.00
56292;BME280;54008;53.606;9.462;2022-12-18T06:21:24;104485.44;;;-8.46;100.00
56292;BME280;54008;53.606;9.462;2022-12-18T06:23:49;104481.06;;;-8.50;100.00
56292;BME280;54008;53.606;9.462;2022-12-18T06:26:15;104490.81;;;-8.47;100.00
56292;BME280;54008;53.606;9.462;2022-12-18T06:28:41;104489.03;;;-8.48;100.00
56292;BME280;54008;53.606;9.462;2022-12-18T06:31:07;104496.00;;;-8.40;100.00
56292;BME280;54008;53.606;9.462;2022-12-18T06:33:33;104496.00;;;-8.41;100.00
56292;BME280;54008;53.606;9.462;2022-12-18T06:36:10;104489.78;;;-8.40;100.00
56292;BME280;54008;53.606;9.462;2022-12-18T06:38:38;104486.16;;;-8.36;100.00
56292;BME280;54008;53.606;9.462;2022-12-18T06:41:14;104489.91;;;-8.46;100.00
56292;BME280;54008;53.606;9.462;2022-12-18T06:43:40;104477.41;;;-8.44;100.00
56292;BME280;54008;53.606;9.462;2022-12-18T06:46:06;104485.44;;;-8.46;100.00
56292;BME280;54008;53.606;9.462;2022-12-18T06:48:32;104477.50;;;-8.47;100.00
56292;BME280;54008;53.606;9.462;2022-12-18T06:50:57;104490.72;;;-8.43;100.00
56292;BME280;54008;53.606;9.462;2022-12-18T06:53:22;104493.34;;;-8.41;100.00
56292;BME280;54008;53.606;9.462;2022-12-18T06:55:48;104493.47;;;-8.47;100.00
56292;BME280;54008;53.606;9.462;2022-12-18T06:58:14;104486.34;;;-8.47;100.00
56292;BME280;54008;53.606;9.462;2022-12-18T07:00:39;104497.84;;;-8.45;100.00
56292;BME280;54008;53.606;9.462;2022-12-18T07:03:04;104497.81;;;-8.42;100.00
56292;BME280;54008;53.606;9.462;2022-12-18T07:05:29;104511.06;;;-8.40;100.00
56292;BME280;54008;53.606;9.462;2022-12-18T07:07:55;104504.03;;;-8.44;100.00
56292;BME280;54008;53.606;9.462;2022-12-18T07:10:20;104504.94;;;-8.44;100.00
56292;BME280;54008;53.606;9.462;2022-12-18T07:12:45;104503.19;;;-8.46;100.00
56292;BME280;54008;53.606;9.462;2022-12-18T07:15:11;104506.75;;;-8.46;100.00
56292;BME280;54008;53.606;9.462;2022-12-18T07:17:36;104508.50;;;-8.43;100.00
56292;BME280;54008;53.606;9.462;2022-12-18T07:20:02;104516.38;;;-8.37;100.00
56292;BME280;54008;53.606;9.462;2022-12-18T07:22:27;104508.34;;;-8.36;100.00
56292;BME280;54008;53.606;9.462;2022-12-18T07:24:52;104522.41;;;-8.29;100.00
56292;BME280;54008;53.606;9.462;2022-12-18T07:27:17;104526.94;;;-8.34;100.00
56292;BME280;54008;53.606;9.462;2022-12-18T07:29:43;104519.06;;;-8.39;100.00
56292;BME280;54008;53.606;9.462;2022-12-18T07:32:08;104524.28;;;-8.33;100.00
56292;BME280;54008;53.606;9.462;2022-12-18T07:34:34;104521.63;;;-8.34;100.00
56292;BME280;54008;53.606;9.462;2022-12-18T07:36:59;104528.69;;;-8.33;100.00
56292;BME280;54008;53.606;9.462;2022-12-18T07:39:24;104527.81;;;-8.34;100.00
56292;BME280;54008;53.606;9.462;2022-12-18T07:41:49;104537.56;;;-8.31;100.00
56292;BME280;54008;53.606;9.462;2022-12-18T07:44:35;104551.50;;;-8.14;100.00
56292;BME280;54008;53.606;9.462;2022-12-18T07:47:00;104558.59;;;-8.13;100.00
56292;BME280;54008;53.606;9.462;2022-12-18T07:49:26;104554.91;;;-8.06;100.00
56292;BME280;54008;53.606;9.462;2022-12-18T07:51:56;104561.91;;;-8.00;100.00
56292;BME280;54008;53.606;9.462;2022-12-18T07:54:23;104568.13;;;-7.99;100.00
56292;BME280;54008;53.606;9.462;2022-12-18T07:56:48;104571.56;;;-7.91;100.00
56292;BME280;54008;53.606;9.462;2022-12-18T07:59:13;104564.44;;;-7.91;100.00
56292;BME280;54008;53.606;9.462;2022-12-18T08:01:39;104562.56;;;-7.86;100.00
56292;BME280;54008;53.606;9.462;2022-12-18T08:04:04;104559.88;;;-7.83;100.00
56292;BME280;54008;53.606;9.462;2022-12-18T08:06:29;104554.63;;;-7.87;100.00
56292;BME280;54008;53.606;9.462;2022-12-18T08:08:56;104570.50;;;-7.81;100.00
56292;BME280;54008;53.606;9.462;2022-12-18T08:11:22;104571.31;;;-7.77;100.00
56292;BME280;54008;53.606;9.462;2022-12-18T08:13:48;104563.19;;;-7.70;100.00
56292;BME280;54008;53.606;9.462;2022-12-18T08:16:13;104556.06;;;-7.68;100.00
56292;BME280;54008;53.606;9.462;2022-12-18T08:18:42;104559.47;;;-7.60;100.00
56292;BME280;54008;53.606;9.462;2022-12-18T08:21:19;104563.91;;;-7.60;100.00
56292;BME280;54008;53.606;9.462;2022-12-18T08:23:46;104562.19;;;-7.63;100.00
56292;BME280;54008;53.606;9.462;2022-12-18T08:26:12;104570.88;;;-7.51;100.00
56292;BME280;54008;53.606;9.462;2022-12-18T08:28:37;104570.91;;;-7.54;100.00
56292;BME280;54008;53.606;9.462;2022-12-18T08:31:03;104565.59;;;-7.54;100.00
56292;BME280;54008;53.606;9.462;2022-12-18T08:33:28;104569.16;;;-7.56;100.00
56292;BME280;54008;53.606;9.462;2022-12-18T08:35:54;104571.88;;;-7.59;100.00
56292;BME280;54008;53.606;9.462;2022-12-18T08:38:19;104575.41;;;-7.57;100.00
56292;BME280;54008;53.606;9.462;2022-12-18T08:40:44;104573.66;;;-7.58;100.00
56292;BME280;54008;53.606;9.462;2022-12-18T08:43:10;104575.31;;;-7.50;100.00
56292;BME280;54008;53.606;9.462;2022-12-18T08:45:55;104587.59;;;-7.43;100.00
56292;BME280;54008;53.606;9.462;2022-12-18T08:48:20;104585.72;;;-7.35;100.00
56292;BME280;54008;53.606;9.462;2022-12-18T08:51:06;104597.19;;;-7.32;100.00
56292;BME280;54008;53.606;9.462;2022-12-18T08:53:31;104590.06;;;-7.31;100.00
56292;BME280;54008;53.606;9.462;2022-12-18T08:55:57;104592.75;;;-7.31;100.00
56292;BME280;54008;53.606;9.462;2022-12-18T08:58:23;104592.44;;;-7.16;100.00
56292;BME280;54008;53.606;9.462;2022-12-18T09:00:48;104597.66;;;-7.10;100.00
56292;BME280;54008;53.606;9.462;2022-12-18T09:03:18;104584.25;;;-7.07;100.00
56292;BME280;54008;53.606;9.462;2022-12-18T09:05:45;104586.84;;;-7.02;100.00
56292;BME280;54008;53.606;9.462;2022-12-18T09:08:11;104583.97;;;-6.93;100.00
56292;BME280;54008;53.606;9.462;2022-12-18T09:10:43;104582.91;;;-6.84;100.00
56292;BME280;54008;53.606;9.462;2022-12-18T09:13:10;104577.50;;;-6.79;100.00
56292;BME280;54008;53.606;9.462;2022-12-18T09:15:46;104587.19;;;-6.75;100.00
56292;BME280;54008;53.606;9.462;2022-12-18T09:18:13;104598.56;;;-6.66;100.00
56292;BME280;54008;53.606;9.462;2022-12-18T09:20:40;104595.69;;;-6.56;100.00
56292;BME280;54008;53.606;9.462;2022-12-18T09:23:07;104608.78;;;-6.44;100.00
56292;BME280;54008;53.606;9.462;2022-12-18T09:25:33;104594.38;;;-6.37;100.00
56292;BME280;54008;53.606;9.462;2022-12-18T09:28:10;104595.25;;;-6.37;100.00
56292;BME280;54008;53.606;9.462;2022-12-18T09:30:38;104598.69;;;-6.30;100.00
56292;BME280;54008;53.606;9.462;2022-12-18T09:33:03;104594.97;;;-6.24;100.00
56292;BME280;54008;53.606;9.462;2022-12-18T09:35:28;104597.56;;;-6.20;100.00
56292;BME280;54008;53.606;9.462;2022-12-18T09:37:54;104598.31;;;-6.15;100.00
56292;BME280;54008;53.606;9.462;2022-12-18T09:40:23;104589.94;;;-5.99;100.00
56292;BME280;54008;53.606;9.462;2022-12-18T09:42:59;104599.69;;;-5.98;100.00
56292;BME280;54008;53.606;9.462;2022-12-18T09:45:25;104597.53;;;-5.84;100.00
56292;BME280;54008;53.606;9.462;2022-12-18T09:47:52;104603.63;;;-5.77;100.00
56292;BME280;54008;53.606;9.462;2022-12-18T09:50:37;104600.75;;;-5.70;100.00
56292;BME280;54008;53.606;9.462;2022-12-18T09:53:14;104619.97;;;-5.52;100.00
56292;BME280;54008;53.606;9.462;2022-12-18T09:55:42;104618.63;;;-5.36;100.00
56292;BME280;54008;53.606;9.462;2022-12-18T10:00:35;104626.38;;;-5.25;100.00
56292;BME280;54008;53.606;9.462;2022-12-18T10:03:03;104627.19;;;-5.22;100.00
56292;BME280;54008;53.606;9.462;2022-12-18T10:08:56;104650.56;;;-4.96;100.00
56292;BME280;54008;53.606;9.462;2022-12-18T10:17:01;104657.81;;;-4.67;100.00
56292;BME280;54008;53.606;9.462;2022-12-18T10:19:45;104664.84;;;-4.63;100.00
56292;BME280;54008;53.606;9.462;2022-12-18T10:22:22;104665.50;;;-4.56;100.00
56292;BME280;54008;53.606;9.462;2022-12-18T10:27:43;104639.56;;;-4.54;100.00
56292;BME280;54008;53.606;9.462;2022-12-18T10:30:14;104634.94;;;-4.49;100.00
56292;BME280;54008;53.606;9.462;2022-12-18T10:32:40;104622.28;;;-4.44;100.00
56292;BME280;54008;53.606;9.462;2022-12-18T10:35:15;104621.28;;;-4.40;100.00
56292;BME280;54008;53.606;9.462;2022-12-18T10:43:24;104595.97;;;-4.31;100.00
56292;BME280;54008;53.606;9.462;2022-12-18T10:48:27;104590.34;;;-4.22;100.00
56292;BME280;54008;53.606;9.462;2022-12-18T10:50:53;104589.41;;;-4.21;100.00
56292;BME280;54008;53.606;9.462;2022-12-18T10:53:24;104586.44;;;-4.11;100.00
56292;BME280;54008;53.606;9.462;2022-12-18T10:55:52;104589.00;;;-4.07;100.00
56292;BME280;54008;53.606;9.462;2022-12-18T10:58:30;104586.25;;;-4.05;100.00
56292;BME280;54008;53.606;9.462;2022-12-18T11:01:11;104583.63;;;-4.07;100.00
56292;BME280;54008;53.606;9.462;2022-12-18T11:03:42;104580.56;;;-3.96;100.00
56292;BME280;54008;53.606;9.462;2022-12-18T11:06:13;104564.47;;;-3.96;100.00
56292;BME280;54008;53.606;9.462;2022-12-18T11:08:41;104562.72;;;-3.97;100.00
56292;BME280;54008;53.606;9.462;2022-12-18T16:06:35;104154.63;;;-4.32;100.00
56292;BME280;54008;53.606;9.462;2022-12-18T16:09:02;104152.81;;;-4.31;100.00
56292;BME280;54008;53.606;9.462;2022-12-18T16:11:28;104144.13;;;-4.38;100.00
56292;BME280;54008;53.606;9.462;2022-12-18T16:14:05;104144.22;;;-4.41;100.00
56292;BME280;54008;53.606;9.462;2022-12-18T16:16:30;104139.00;;;-4.44;100.00
56292;BME280;54008;53.606;9.462;2022-12-18T16:18:56;104137.13;;;-4.42;100.00
56292;BME280;54008;53.606;9.462;2022-12-18T16:21:21;104126.59;;;-4.47;100.00
56292;BME280;54008;53.606;9.462;2022-12-18T16:23:46;104123.03;;;-4.47;100.00
56292;BME280;54008;53.606;9.462;2022-12-18T16:26:38;104127.63;;;-4.51;100.00
56292;BME280;54008;53.606;9.462;2022-12-18T16:29:03;104134.63;;;-4.47;100.00
56292;BME280;54008;53.606;9.462;2022-12-18T16:31:29;104139.13;;;-4.47;100.00
56292;BME280;54008;53.606;9.462;2022-12-18T16:34:30;104160.31;;;-4.41;100.00
56292;BME280;54008;53.606;9.462;2022-12-18T16:37:01;104163.94;;;-4.42;100.00
56292;BME280;54008;53.606;9.462;2022-12-18T16:39:27;104158.84;;;-4.50;100.00
56292;BME280;54008;53.606;9.462;2022-12-18T16:41:52;104151.69;;;-4.49;100.00
56292;BME280;54008;53.606;9.462;2022-12-18T16:44:19;104148.22;;;-4.51;100.00
56292;BME280;54008;53.606;9.462;2022-12-18T16:46:44;104153.56;;;-4.51;100.00
56292;BME280;54008;53.606;9.462;2022-12-18T16:49:11;104160.47;;;-4.46;100.00
56292;BME280;54008;53.606;9.462;2022-12-18T16:51:37;104144.16;;;-4.63;100.00
56292;BME280;54008;53.606;9.462;2022-12-18T16:54:02;104145.81;;;-4.59;100.00
56292;BME280;54008;53.606;9.462;2022-12-18T16:56:29;104142.38;;;-4.63;100.00
56292;BME280;54008;53.606;9.462;2022-12-18T16:58:57;104142.19;;;-4.58;100.00
56292;BME280;54008;53.606;9.462;2022-12-18T17:01:23;104142.13;;;-4.56;100.00
56292;BME280;54008;53.606;9.462;2022-12-18T17:03:53;104137.53;;;-4.53;100.00
56292;BME280;54008;53.606;9.462;2022-12-18T17:06:20;104134.09;;;-4.56;100.00
56292;BME280;54008;53.606;9.462;2022-12-18T17:08:46;104126.16;;;-4.59;100.00
56292;BME280;54008;53.606;9.462;2022-12-18T17:11:11;104116.28;;;-4.57;100.00
56292;BME280;54008;53.606;9.462;2022-12-18T17:13:37;104116.38;;;-4.60;100.00
56292;BME280;54008;53.606;9.462;2022-12-18T17:16:06;104120.09;;;-4.65;100.00
56292;BME280;54008;53.606;9.462;2022-12-18T17:18:32;104127.94;;;-4.58;100.00
56292;BME280;54008;53.606;9.462;2022-12-18T17:21:03;104145.84;;;-4.60;100.00
56292;BME280;54008;53.606;9.462;2022-12-18T17:23:29;104143.13;;;-4.59;100.00
56292;BME280;54008;53.606;9.462;2022-12-18T17:25:58;104134.19;;;-4.59;100.00
56292;BME280;54008;53.606;9.462;2022-12-18T17:28:27;104128.63;;;-4.53;100.00
56292;BME280;54008;53.606;9.462;2022-12-18T17:30:54;104128.63;;;-4.53;100.00
56292;BME280;54008;53.606;9.462;2022-12-18T17:33:20;104133.00;;;-4.51;100.00
56292;BME280;54008;53.606;9.462;2022-12-18T17:35:45;104137.34;;;-4.48;100.00
56292;BME280;54008;53.606;9.462;2022-12-18T17:38:11;104134.75;;;-4.50;100.00
56292;BME280;54008;53.606;9.462;2022-12-18T17:40:37;104126.78;;;-4.51;100.00
56292;BME280;54008;53.606;9.462;2022-12-18T17:43:02;104114.28;;;-4.52;100.00
56292;BME280;54008;53.606;9.462;2022-12-18T17:45:28;104117.78;;;-4.50;100.00
56292;BME280;54008;53.606;9.462;2022-12-18T17:47:53;104127.53;;;-4.48;100.00
56292;BME280;54008;53.606;9.462;2022-12-18T17:50:18;104119.53;;;-4.49;100.00
56292;BME280;54008;53.606;9.462;2022-12-18T17:52:44;104114.28;;;-4.52;100.00
56292;BME280;54008;53.606;9.462;2022-12-18T17:55:09;104109.88;;;-4.53;100.00
56292;BME280;54008;53.606;9.462;2022-12-18T17:57:35;104105.34;;;-4.51;100.00
56292;BME280;54008;53.606;9.462;2022-12-18T18:00:02;104104.16;;;-4.44;100.00
56292;BME280;54008;53.606;9.462;2022-12-18T18:02:27;104085.56;;;-4.49;100.00
56292;BME280;54008;53.606;9.462;2022-12-18T18:04:53;104086.38;;;-4.47;100.00
56292;BME280;54008;53.606;9.462;2022-12-18T18:07:18;104075.03;;;-4.53;100.00
56292;BME280;54008;53.606;9.462;2022-12-18T18:09:43;104078.28;;;-4.45;100.00
56292;BME280;54008;53.606;9.462;2022-12-18T18:12:09;104077.53;;;-4.49;100.00
56292;BME280;54008;53.606;9.462;2022-12-18T18:14:53;104080.28;;;-4.50;100.00
56292;BME280;54008;53.606;9.462;2022-12-18T18:17:18;104088.13;;;-4.46;100.00
56292;BME280;54008;53.606;9.462;2022-12-18T18:19:43;104087.16;;;-4.43;100.00
56292;BME280;54008;53.606;9.462;2022-12-18T18:22:09;104074.69;;;-4.44;100.00
56292;BME280;54008;53.606;9.462;2022-12-18T18:24:34;104073.75;;;-4.43;100.00
56292;BME280;54008;53.606;9.462;2022-12-18T18:26:59;104061.00;;;-4.36;100.00
56292;BME280;54008;53.606;9.462;2022-12-18T18:29:25;104047.75;;;-4.41;100.00
56292;BME280;54008;53.606;9.462;2022-12-18T18:31:51;104053.81;;;-4.36;100.00
56292;BME280;54008;53.606;9.462;2022-12-18T18:34:18;104035.97;;;-4.37;100.00
56292;BME280;54008;53.606;9.462;2022-12-18T18:36:44;104027.81;;;-4.34;100.00
56292;BME280;54008;53.606;9.462;2022-12-18T18:39:10;104018.84;;;-4.33;100.00
56292;BME280;54008;53.606;9.462;2022-12-18T18:41:36;104020.72;;;-4.35;100.00
56292;BME280;54008;53.606;9.462;2022-12-18T18:44:02;104021.53;;;-4.33;100.00
56292;BME280;54008;53.606;9.462;2022-12-18T18:46:27;104024.22;;;-4.33;100.00
56292;BME280;54008;53.606;9.462;2022-12-18T18:48:53;104027.66;;;-4.29;100.00
56292;BME280;54008;53.606;9.462;2022-12-18T18:51:19;104031.31;;;-4.32;100.00
56292;BME280;54008;53.606;9.462;2022-12-18T18:53:46;104023.47;;;-4.36;100.00
56292;BME280;54008;53.606;9.462;2022-12-18T18:56:13;104003.66;;;-4.32;100.00
56292;BME280;54008;53.606;9.462;2022-12-18T18:58:39;103992.06;;;-4.33;100.00
56292;BME280;54008;53.606;9.462;2022-12-18T19:01:25;103999.03;;;-4.29;100.00
56292;BME280;54008;53.606;9.462;2022-12-18T19:03:52;103989.09;;;-4.27;100.00
56292;BME280;54008;53.606;9.462;2022-12-18T19:06:20;103977.19;;;-4.20;100.00
56292;BME280;54008;53.606;9.462;2022-12-18T19:11:12;103973.97;;;-4.28;100.00
56292;BME280;54008;53.606;9.462;2022-12-18T19:13:58;103979.22;;;-4.25;100.00
56292;BME280;54008;53.606;9.462;2022-12-18T19:16:23;103958.63;;;-4.24;100.00
56292;BME280;54008;53.606;9.462;2022-12-18T19:18:49;103954.06;;;-4.22;100.00
56292;BME280;54008;53.606;9.462;2022-12-18T19:21:23;103952.28;;;-4.22;100.00
